sensor_id;sensor_type;location;lat;lon;timestamp;pressure;altitude;pressure_sealevel;temperature;humidity
68077;BME280;54866;53.458;14.540;2022-11-15T00:01:59;100773.86;;;4.33;100.00
68077;BME280;54866;53.458;14.540;2022-11-15T00:04:28;100770.00;;;4.34;100.00
68077;BME280;54866;53.458;14.540;2022-11-15T00:06:58;100771.80;;;4.36;100.00
68077;BME280;54866;53.458;14.540;2022-11-15T00:09:28;100770.97;;;4.39;100.00
68077;BME280;54866;53.458;14.540;2022-11-15T00:11:58;100767.56;;;4.40;100.00
68077;BME280;54866;53.458;14.540;2022-11-15T00:14:27;100766.63;;;4.42;100.00
68077;BME280;54866;53.458;14.540;2022-11-15T00:16:57;100763.41;;;4.43;100.00
68077;BME280;54866;53.458;14.540;2022-11-15T00:19:27;100767.19;;;4.44;100.00
68077;BME280;54866;53.458;14.540;2022-11-15T00:21:56;100764.98;;;4.46;100.00
68077;BME280;54866;53.458;14.540;2022-11-15T00:24:26;100765.41;;;4.48;100.00
68077;BME280;54866;53.458;14.540;2022-11-15T00:26:56;100767.11;;;4.49;100.00
68077;BME280;54866;53.458;14.540;2022-11-15T00:29:26;100758.48;;;4.50;100.00
68077;BME280;54866;53.458;14.540;2022-11-15T00:31:55;100762.77;;;4.52;100.00
68077;BME280;54866;53.458;14.540;2022-11-15T00:34:25;100749.28;;;4.53;100.00
68077;BME280;54866;53.458;14.540;2022-11-15T00:36:55;100750.02;;;4.56;100.00
68077;BME280;54866;53.458;14.540;2022-11-15T00:39:24;100745.98;;;4.56;100.00
68077;BME280;54866;53.458;14.540;2022-11-15T00:41:54;100747.31;;;4.58;100.00
68077;BME280;54866;53.458;14.540;2022-11-15T00:44:24;100742.04;;;4.58;100.00
68077;BME280;54866;53.458;14.540;2022-11-15T00:46:54;100736.09;;;4.58;100.00
68077;BME280;54866;53.458;14.540;2022-11-15T00:49:23;100736.80;;;4.59;100.00
68077;BME280;54866;53.458;14.540;2022-11-15T00:51:53;100742.61;;;4.58;100.00
68077;BME280;54866;53.458;14.540;2022-11-15T00:54:23;100740.38;;;4.57;100.00
68077;BME280;54866;53.458;14.540;2022-11-15T00:56:53;100734.98;;;4.56;100.00
68077;BME280;54866;53.458;14.540;2022-11-15T00:59:22;100732.81;;;4.54;100.00
68077;BME280;54866;53.458;14.540;2022-11-15T01:01:53;100733.11;;;4.56;100.00
68077;BME280;54866;53.458;14.540;2022-11-15T01:04:23;100730.90;;;4.54;100.00
68077;BME280;54866;53.458;14.540;2022-11-15T01:06:52;100732.30;;;4.54;100.00
68077;BME280;54866;53.458;14.540;2022-11-15T01:09:22;100734.42;;;4.53;100.00
68077;BME280;54866;53.458;14.540;2022-11-15T01:11:52;100721.99;;;4.54;100.00
68077;BME280;54866;53.458;14.540;2022-11-15T01:14:21;100716.02;;;4.56;100.00
68077;BME280;54866;53.458;14.540;2022-11-15T01:16:51;100717.09;;;4.55;100.00
68077;BME280;54866;53.458;14.540;2022-11-15T01:19:21;100713.12;;;4.54;100.00
68077;BME280;54866;53.458;14.540;2022-11-15T01:21:51;100711.17;;;4.54;100.00
68077;BME280;54866;53.458;14.540;2022-11-15T01:24:21;100704.20;;;4.55;100.00
68077;BME280;54866;53.458;14.540;2022-11-15T01:26:50;100709.16;;;4.53;100.00
68077;BME280;54866;53.458;14.540;2022-11-15T01:29:20;100701.77;;;4.54;100.00
68077;BME280;54866;53.458;14.540;2022-11-15T01:31:50;100700.30;;;4.56;100.00
68077;BME280;54866;53.458;14.540;2022-11-15T01:34:22;100693.48;;;4.56;100.00
68077;BME280;54866;53.458;14.540;2022-11-15T01:36:52;100688.74;;;4.57;100.00
68077;BME280;54866;53.458;14.540;2022-11-15T01:39:22;100682.42;;;4.57;100.00
68077;BME280;54866;53.458;14.540;2022-11-15T01:41:51;100682.77;;;4.57;100.00
68077;BME280;54866;53.458;14.540;2022-11-15T01:44:43;100678.96;;;4.57;100.00
68077;BME280;54866;53.458;14.540;2022-11-15T01:47:15;100675.23;;;4.55;100.00
68077;BME280;54866;53.458;14.540;2022-11-15T01:49:52;100674.97;;;4.56;100.00
68077;BME280;54866;53.458;14.540;2022-11-15T01:52:26;100673.70;;;4.57;100.00
68077;BME280;54866;53.458;14.540;2022-11-15T01:55:01;100670.36;;;4.58;100.00
68077;BME280;54866;53.458;14.540;2022-11-15T01:57:31;100672.55;;;4.59;100.00
68077;BME280;54866;53.458;14.540;2022-11-15T02:00:02;100671.33;;;4.59;100.00
68077;BME280;54866;53.458;14.540;2022-11-15T02:02:33;100670.17;;;4.61;100.00
68077;BME280;54866;53.458;14.540;2022-11-15T02:05:06;100665.98;;;4.61;100.00
68077;BME280;54866;53.458;14.540;2022-11-15T02:07:36;100658.10;;;4.62;100.00
68077;BME280;54866;53.458;14.540;2022-11-15T02:10:09;100661.02;;;4.62;100.00
68077;BME280;54866;53.458;14.540;2022-11-15T02:12:38;100662.38;;;4.63;100.00
68077;BME280;54866;53.458;14.540;2022-11-15T02:15:10;100656.56;;;4.64;100.00
68077;BME280;54866;53.458;14.540;2022-11-15T02:17:52;100651.14;;;4.64;100.00
68077;BME280;54866;53.458;14.540;2022-11-15T02:20:43;100654.44;;;4.65;100.00
68077;BME280;54866;53.458;14.540;2022-11-15T02:23:35;100648.15;;;4.65;100.00
68077;BME280;54866;53.458;14.540;2022-11-15T02:26:35;100650.58;;;4.65;100.00
68077;BME280;54866;53.458;14.540;2022-11-15T02:29:22;100654.54;;;4.66;100.00
68077;BME280;54866;53.458;14.540;2022-11-15T02:31:59;100646.56;;;4.65;100.00
68077;BME280;54866;53.458;14.540;2022-11-15T02:34:40;100643.68;;;4.67;100.00
68077;BME280;54866;53.458;14.540;2022-11-15T02:37:19;100641.38;;;4.67;100.00
68077;BME280;54866;53.458;14.540;2022-11-15T02:39:56;100646.83;;;4.67;100.00
68077;BME280;54866;53.458;14.540;2022-11-15T02:42:30;100644.96;;;4.66;100.00
68077;BME280;54866;53.458;14.540;2022-11-15T02:45:23;100638.52;;;4.65;100.00
68077;BME280;54866;53.458;14.540;2022-11-15T02:47:56;100644.99;;;4.65;100.00
68077;BME280;54866;53.458;14.540;2022-11-15T02:50:29;100642.20;;;4.65;100.00
68077;BME280;54866;53.458;14.540;2022-11-15T02:53:01;100637.14;;;4.65;100.00
68077;BME280;54866;53.458;14.540;2022-11-15T02:55:32;100638.52;;;4.65;100.00
68077;BME280;54866;53.458;14.540;2022-11-15T02:58:19;100636.70;;;4.67;100.00
68077;BME280;54866;53.458;14.540;2022-11-15T03:01:02;100630.16;;;4.68;100.00
68077;BME280;54866;53.458;14.540;2022-11-15T03:03:44;100625.44;;;4.69;100.00
68077;BME280;54866;53.458;14.540;2022-11-15T03:06:27;100632.00;;;4.70;100.00
68077;BME280;54866;53.458;14.540;2022-11-15T03:09:04;100638.77;;;4.71;100.00
68077;BME280;54866;53.458;14.540;2022-11-15T03:11:42;100632.42;;;4.72;100.00
68077;BME280;54866;53.458;14.540;2022-11-15T03:14:21;100630.33;;;4.72;100.00
68077;BME280;54866;53.458;14.540;2022-11-15T03:17:01;100626.42;;;4.73;100.00
68077;BME280;54866;53.458;14.540;2022-11-15T03:19:36;100625.26;;;4.72;100.00
68077;BME280;54866;53.458;14.540;2022-11-15T03:22:12;100619.53;;;4.71;100.00
68077;BME280;54866;53.458;14.540;2022-11-15T03:24:46;100618.98;;;4.71;100.00
68077;BME280;54866;53.458;14.540;2022-11-15T03:27:19;100618.38;;;4.70;100.00
68077;BME280;54866;53.458;14.540;2022-11-15T03:29:54;100621.58;;;4.69;100.00
68077;BME280;54866;53.458;14.540;2022-11-15T03:32:28;100614.46;;;4.68;100.00
68077;BME280;54866;53.458;14.540;2022-11-15T03:35:00;100613.08;;;4.68;100.00
68077;BME280;54866;53.458;14.540;2022-11-15T03:37:36;100610.67;;;4.67;100.00
68077;BME280;54866;53.458;14.540;2022-11-15T03:40:09;100606.13;;;4.67;100.00
68077;BME280;54866;53.458;14.540;2022-11-15T03:42:45;100605.77;;;4.67;100.00
68077;BME280;54866;53.458;14.540;2022-11-15T03:45:19;100599.11;;;4.68;100.00
68077;BME280;54866;53.458;14.540;2022-11-15T03:47:55;100604.01;;;4.68;100.00
68077;BME280;54866;53.458;14.540;2022-11-15T03:50:28;100608.17;;;4.68;100.00
68077;BME280;54866;53.458;14.540;2022-11-15T03:52:59;100615.11;;;4.69;100.00
68077;BME280;54866;53.458;14.540;2022-11-15T03:55:28;100601.46;;;4.70;100.00
68077;BME280;54866;53.458;14.540;2022-11-15T03:58:02;100607.35;;;4.70;100.00
68077;BME280;54866;53.458;14.540;2022-11-15T04:00:32;100601.75;;;4.71;100.00
68077;BME280;54866;53.458;14.540;2022-11-15T04:03:02;100600.33;;;4.71;100.00
68077;BME280;54866;53.458;14.540;2022-11-15T04:05:31;100604.52;;;4.72;100.00
68077;BME280;54866;53.458;14.540;2022-11-15T04:08:01;100609.05;;;4.72;100.00
68077;BME280;54866;53.458;14.540;2022-11-15T04:10:31;100605.14;;;4.73;100.00
68077;BME280;54866;53.458;14.540;2022-11-15T04:13:01;100603.23;;;4.73;100.00
68077;BME280;54866;53.458;14.540;2022-11-15T04:15:31;100611.23;;;4.73;100.00
68077;BME280;54866;53.458;14.540;2022-11-15T04:18:01;100608.92;;;4.74;100.00
68077;BME280;54866;53.458;14.540;2022-11-15T04:20:32;100604.77;;;4.73;100.00
68077;BME280;54866;53.458;14.540;2022-11-15T04:23:19;100593.36;;;4.71;100.00
68077;BME280;54866;53.458;14.540;2022-11-15T04:26:10;100599.86;;;4.71;100.00
68077;BME280;54866;53.458;14.540;2022-11-15T04:28:40;100602.38;;;4.69;100.00
68077;BME280;54866;53.458;14.540;2022-11-15T04:31:22;100598.27;;;4.67;100.00
68077;BME280;54866;53.458;14.540;2022-11-15T04:33:52;100597.33;;;4.66;100.00
68077;BME280;54866;53.458;14.540;2022-11-15T04:36:23;100596.23;;;4.63;100.00
68077;BME280;54866;53.458;14.540;2022-11-15T04:39:11;100599.91;;;4.60;100.00
68077;BME280;54866;53.458;14.540;2022-11-15T04:41:40;100597.80;;;4.58;100.00
68077;BME280;54866;53.458;14.540;2022-11-15T04:44:10;100593.33;;;4.56;100.00
68077;BME280;54866;53.458;14.540;2022-11-15T04:46:40;100590.58;;;4.55;100.00
68077;BME280;54866;53.458;14.540;2022-11-15T04:49:09;100592.65;;;4.56;100.00
68077;BME280;54866;53.458;14.540;2022-11-15T04:51:39;100594.55;;;4.56;100.00
68077;BME280;54866;53.458;14.540;2022-11-15T04:54:09;100594.36;;;4.56;100.00
68077;BME280;54866;53.458;14.540;2022-11-15T04:56:39;100592.22;;;4.57;100.00
68077;BME280;54866;53.458;14.540;2022-11-15T04:59:08;100594.48;;;4.57;100.00
68077;BME280;54866;53.458;14.540;2022-11-15T05:01:38;100588.73;;;4.57;100.00
68077;BME280;54866;53.458;14.540;2022-11-15T05:04:08;100588.98;;;4.56;100.00
68077;BME280;54866;53.458;14.540;2022-11-15T05:06:51;100583.97;;;4.55;100.00
68077;BME280;54866;53.458;14.540;2022-11-15T05:09:21;100580.04;;;4.53;100.00
68077;BME280;54866;53.458;14.540;2022-11-15T05:11:51;100583.64;;;4.54;100.00
68077;BME280;54866;53.458;14.540;2022-11-15T05:14:20;100582.50;;;4.53;100.00
68077;BME280;54866;53.458;14.540;2022-11-15T05:16:50;100583.06;;;4.52;100.00
68077;BME280;54866;53.458;14.540;2022-11-15T05:19:20;100580.52;;;4.50;100.00
68077;BME280;54866;53.458;14.540;2022-11-15T05:21:50;100579.34;;;4.49;100.00
68077;BME280;54866;53.458;14.540;2022-11-15T05:24:19;100578.73;;;4.48;100.00
68077;BME280;54866;53.458;14.540;2022-11-15T05:26:49;100583.15;;;4.47;100.00
68077;BME280;54866;53.458;14.540;2022-11-15T05:29:19;100575.75;;;4.45;100.00
68077;BME280;54866;53.458;14.540;2022-11-15T05:31:49;100576.30;;;4.45;100.00
68077;BME280;54866;53.458;14.540;2022-11-15T05:34:19;100575.67;;;4.43;100.00
68077;BME280;54866;53.458;14.540;2022-11-15T05:36:50;100570.61;;;4.44;100.00
68077;BME280;54866;53.458;14.540;2022-11-15T05:39:20;100575.29;;;4.41;100.00
68077;BME280;54866;53.458;14.540;2022-11-15T05:41:52;100578.02;;;4.42;100.00
68077;BME280;54866;53.458;14.540;2022-11-15T05:44:25;100576.45;;;4.42;100.00
68077;BME280;54866;53.458;14.540;2022-11-15T05:46:57;100579.95;;;4.42;100.00
68077;BME280;54866;53.458;14.540;2022-11-15T05:49:30;100580.88;;;4.41;100.00
68077;BME280;54866;53.458;14.540;2022-11-15T05:52:01;100581.72;;;4.41;100.00
68077;BME280;54866;53.458;14.540;2022-11-15T05:54:33;100579.35;;;4.40;100.00
68077;BME280;54866;53.458;14.540;2022-11-15T05:57:05;100573.84;;;4.39;100.00
68077;BME280;54866;53.458;14.540;2022-11-15T05:59:36;100571.93;;;4.39;100.00
68077;BME280;54866;53.458;14.540;2022-11-15T06:02:06;100574.77;;;4.38;100.00
68077;BME280;54866;53.458;14.540;2022-11-15T06:04:35;100575.20;;;4.37;100.00
68077;BME280;54866;53.458;14.540;2022-11-15T06:07:05;100583.90;;;4.37;100.00
68077;BME280;54866;53.458;14.540;2022-11-15T06:09:35;100586.02;;;4.37;100.00
68077;BME280;54866;53.458;14.540;2022-11-15T06:12:05;100582.10;;;4.35;100.00
68077;BME280;54866;53.458;14.540;2022-11-15T06:14:35;100579.56;;;4.33;100.00
68077;BME280;54866;53.458;14.540;2022-11-15T06:17:05;100581.35;;;4.32;100.00
68077;BME280;54866;53.458;14.540;2022-11-15T06:19:35;100577.73;;;4.31;100.00
68077;BME280;54866;53.458;14.540;2022-11-15T06:22:05;100576.70;;;4.31;100.00
68077;BME280;54866;53.458;14.540;2022-11-15T06:24:34;100578.67;;;4.30;100.00
68077;BME280;54866;53.458;14.540;2022-11-15T06:27:04;100571.00;;;4.30;100.00
68077;BME280;54866;53.458;14.540;2022-11-15T06:29:34;100574.45;;;4.31;100.00
68077;BME280;54866;53.458;14.540;2022-11-15T06:32:04;100578.88;;;4.30;100.00
68077;BME280;54866;53.458;14.540;2022-11-15T06:34:34;100579.39;;;4.30;100.00
68077;BME280;54866;53.458;14.540;2022-11-15T06:37:04;100581.65;;;4.30;100.00
68077;BME280;54866;53.458;14.540;2022-11-15T06:39:33;100583.54;;;4.31;100.00
68077;BME280;54866;53.458;14.540;2022-11-15T06:42:03;100584.20;;;4.31;100.00
68077;BME280;54866;53.458;14.540;2022-11-15T06:44:33;100583.73;;;4.31;100.00
68077;BME280;54866;53.458;14.540;2022-11-15T06:47:03;100584.36;;;4.28;100.00
68077;BME280;54866;53.458;14.540;2022-11-15T06:49:33;100592.84;;;4.29;100.00
68077;BME280;54866;53.458;14.540;2022-11-15T06:52:02;100596.00;;;4.29;100.00
68077;BME280;54866;53.458;14.540;2022-11-15T06:54:32;100594.09;;;4.29;100.00
68077;BME280;54866;53.458;14.540;2022-11-15T06:57:03;100587.75;;;4.30;100.00
68077;BME280;54866;53.458;14.540;2022-11-15T06:59:33;100585.78;;;4.31;100.00
68077;BME280;54866;53.458;14.540;2022-11-15T07:02:03;100587.48;;;4.32;100.00
68077;BME280;54866;53.458;14.540;2022-11-15T07:04:33;100586.91;;;4.32;100.00
68077;BME280;54866;53.458;14.540;2022-11-15T07:07:04;100587.21;;;4.33;100.00
68077;BME280;54866;53.458;14.540;2022-11-15T07:09:34;100588.80;;;4.34;100.00
68077;BME280;54866;53.458;14.540;2022-11-15T07:12:04;100590.30;;;4.35;100.00
68077;BME280;54866;53.458;14.540;2022-11-15T07:14:34;100590.39;;;4.37;100.00
68077;BME280;54866;53.458;14.540;2022-11-15T07:17:05;100591.02;;;4.38;100.00
68077;BME280;54866;53.458;14.540;2022-11-15T07:19:35;100595.39;;;4.38;100.00
68077;BME280;54866;53.458;14.540;2022-11-15T07:22:05;100600.46;;;4.37;100.00
68077;BME280;54866;53.458;14.540;2022-11-15T07:24:34;100599.98;;;4.36;100.00
68077;BME280;54866;53.458;14.540;2022-11-15T07:27:04;100598.35;;;4.34;100.00
68077;BME280;54866;53.458;14.540;2022-11-15T07:29:34;100601.54;;;4.33;100.00
68077;BME280;54866;53.458;14.540;2022-11-15T07:32:04;100600.31;;;4.33;100.00
68077;BME280;54866;53.458;14.540;2022-11-15T07:34:33;100603.58;;;4.34;100.00
68077;BME280;54866;53.458;14.540;2022-11-15T07:37:03;100606.23;;;4.34;100.00
68077;BME280;54866;53.458;14.540;2022-11-15T07:39:33;100610.51;;;4.35;100.00
68077;BME280;54866;53.458;14.540;2022-11-15T07:42:03;100610.64;;;4.36;100.00
68077;BME280;54866;53.458;14.540;2022-11-15T07:44:50;100621.95;;;4.36;100.00
68077;BME280;54866;53.458;14.540;2022-11-15T07:47:20;100628.23;;;4.37;100.00
68077;BME280;54866;53.458;14.540;2022-11-15T07:49:49;100622.54;;;4.35;100.00
68077;BME280;54866;53.458;14.540;2022-11-15T07:52:20;100627.18;;;4.36;100.00
68077;BME280;54866;53.458;14.540;2022-11-15T07:54:50;100629.21;;;4.38;100.00
68077;BME280;54866;53.458;14.540;2022-11-15T07:57:19;100629.48;;;4.39;100.00
68077;BME280;54866;53.458;14.540;2022-11-15T07:59:49;100625.55;;;4.41;100.00
68077;BME280;54866;53.458;14.540;2022-11-15T08:02:19;100627.36;;;4.42;100.00
68077;BME280;54866;53.458;14.540;2022-11-15T08:04:49;100625.88;;;4.44;100.00
68077;BME280;54866;53.458;14.540;2022-11-15T08:07:18;100625.48;;;4.48;100.00
68077;BME280;54866;53.458;14.540;2022-11-15T08:09:48;100621.66;;;4.51;100.00
68077;BME280;54866;53.458;14.540;2022-11-15T08:12:18;100619.36;;;4.52;100.00
68077;BME280;54866;53.458;14.540;2022-11-15T08:14:48;100618.86;;;4.55;100.00
68077;BME280;54866;53.458;14.540;2022-11-15T08:17:18;100616.59;;;4.58;100.00
68077;BME280;54866;53.458;14.540;2022-11-15T08:19:47;100613.62;;;4.64;100.00
68077;BME280;54866;53.458;14.540;2022-11-15T08:22:17;100617.64;;;4.71;100.00
68077;BME280;54866;53.458;14.540;2022-11-15T08:24:47;100617.26;;;4.77;100.00
68077;BME280;54866;53.458;14.540;2022-11-15T08:27:17;100618.84;;;4.80;100.00
68077;BME280;54866;53.458;14.540;2022-11-15T08:29:47;100617.86;;;4.85;100.00
68077;BME280;54866;53.458;14.540;2022-11-15T08:32:18;100612.02;;;4.90;100.00
68077;BME280;54866;53.458;14.540;2022-11-15T08:34:48;100615.50;;;4.93;100.00
68077;BME280;54866;53.458;14.540;2022-11-15T08:37:17;100613.34;;;4.98;100.00
68077;BME280;54866;53.458;14.540;2022-11-15T08:39:47;100606.70;;;5.04;100.00
68077;BME280;54866;53.458;14.540;2022-11-15T08:42:17;100609.33;;;5.10;100.00
68077;BME280;54866;53.458;14.540;2022-11-15T08:44:47;100611.97;;;5.12;100.00
68077;BME280;54866;53.458;14.540;2022-11-15T08:47:16;100614.08;;;5.18;100.00
68077;BME280;54866;53.458;14.540;2022-11-15T08:49:46;100614.53;;;5.19;100.00
68077;BME280;54866;53.458;14.540;2022-11-15T08:52:16;100616.73;;;5.21;100.00
68077;BME280;54866;53.458;14.540;2022-11-15T08:54:46;100618.27;;;5.22;100.00
68077;BME280;54866;53.458;14.540;2022-11-15T08:57:16;100615.63;;;5.22;100.00
68077;BME280;54866;53.458;14.540;2022-11-15T08:59:46;100620.00;;;5.22;100.00
68077;BME280;54866;53.458;14.540;2022-11-15T09:02:16;100609.97;;;5.20;100.00
68077;BME280;54866;53.458;14.540;2022-11-15T09:04:46;100610.05;;;5.22;100.00
68077;BME280;54866;53.458;14.540;2022-11-15T09:07:16;100602.61;;;5.27;100.00
68077;BME280;54866;53.458;14.540;2022-11-15T09:09:46;100601.84;;;5.34;100.00
68077;BME280;54866;53.458;14.540;2022-11-15T09:12:15;100604.13;;;5.43;100.00
68077;BME280;54866;53.458;14.540;2022-11-15T09:14:45;100598.45;;;5.50;100.00
68077;BME280;54866;53.458;14.540;2022-11-15T09:17:15;100596.52;;;5.56;100.00
68077;BME280;54866;53.458;14.540;2022-11-15T09:19:44;100589.15;;;5.57;100.00
68077;BME280;54866;53.458;14.540;2022-11-15T09:22:14;100590.63;;;5.61;100.00
68077;BME280;54866;53.458;14.540;2022-11-15T09:24:44;100590.77;;;5.67;100.00
68077;BME280;54866;53.458;14.540;2022-11-15T09:27:14;100590.39;;;5.71;100.00
68077;BME280;54866;53.458;14.540;2022-11-15T09:29:43;100590.98;;;5.76;100.00
68077;BME280;54866;53.458;14.540;2022-11-15T09:32:13;100591.02;;;5.81;100.00
68077;BME280;54866;53.458;14.540;2022-11-15T09:34:43;100592.58;;;5.84;100.00
68077;BME280;54866;53.458;14.540;2022-11-15T09:37:12;100590.31;;;5.87;100.00
68077;BME280;54866;53.458;14.540;2022-11-15T09:39:42;100590.75;;;5.95;100.00
68077;BME280;54866;53.458;14.540;2022-11-15T09:42:25;100589.44;;;6.01;100.00
68077;BME280;54866;53.458;14.540;2022-11-15T09:45:06;100586.61;;;5.99;100.00
68077;BME280;54866;53.458;14.540;2022-11-15T09:48:09;100585.50;;;5.95;100.00
68077;BME280;54866;53.458;14.540;2022-11-15T09:50:45;100584.52;;;5.94;100.00
68077;BME280;54866;53.458;14.540;2022-11-15T09:53:17;100585.59;;;5.90;100.00
68077;BME280;54866;53.458;14.540;2022-11-15T09:55:56;100590.91;;;5.88;100.00
68077;BME280;54866;53.458;14.540;2022-11-15T09:58:33;100592.58;;;5.87;100.00
68077;BME280;54866;53.458;14.540;2022-11-15T10:01:10;100589.56;;;5.88;100.00
68077;BME280;54866;53.458;14.540;2022-11-15T10:03:42;100589.99;;;5.86;100.00
68077;BME280;54866;53.458;14.540;2022-11-15T10:06:20;100593.11;;;5.90;100.00
68077;BME280;54866;53.458;14.540;2022-11-15T10:08:58;100586.67;;;6.01;100.00
68077;BME280;54866;53.458;14.540;2022-11-15T10:11:35;100584.43;;;6.03;100.00
68077;BME280;54866;53.458;14.540;2022-11-15T10:14:11;100585.78;;;6.04;100.00
68077;BME280;54866;53.458;14.540;2022-11-15T10:17:13;100579.58;;;6.05;100.00
68077;BME280;54866;53.458;14.540;2022-11-15T10:19:52;100580.73;;;6.13;100.00
68077;BME280;54866;53.458;14.540;2022-11-15T10:22:27;100582.38;;;6.20;100.00
68077;BME280;54866;53.458;14.540;2022-11-15T10:25:14;100578.36;;;6.26;100.00
68077;BME280;54866;53.458;14.540;2022-11-15T10:27:53;100574.58;;;6.30;100.00
68077;BME280;54866;53.458;14.540;2022-11-15T10:30:23;100571.63;;;6.35;100.00
68077;BME280;54866;53.458;14.540;2022-11-15T10:32:58;100567.98;;;6.40;100.00
68077;BME280;54866;53.458;14.540;2022-11-15T10:35:39;100564.64;;;6.43;100.00
68077;BME280;54866;53.458;14.540;2022-11-15T10:38:10;100563.69;;;6.50;100.00
68077;BME280;54866;53.458;14.540;2022-11-15T10:40:41;100555.77;;;6.53;99.91
68077;BME280;54866;53.458;14.540;2022-11-15T10:43:17;100556.89;;;6.57;99.66
68077;BME280;54866;53.458;14.540;2022-11-15T10:45:47;100552.99;;;6.67;99.72
68077;BME280;54866;53.458;14.540;2022-11-15T10:48:26;100554.00;;;6.81;99.61
68077;BME280;54866;53.458;14.540;2022-11-15T10:50:56;100552.48;;;6.90;99.09
68077;BME280;54866;53.458;14.540;2022-11-15T10:53:29;100548.20;;;7.05;98.42
68077;BME280;54866;53.458;14.540;2022-11-15T10:56:03;100547.55;;;7.13;97.37
68077;BME280;54866;53.458;14.540;2022-11-15T10:58:37;100543.97;;;7.14;96.79
68077;BME280;54866;53.458;14.540;2022-11-15T11:01:16;100547.86;;;7.18;96.17
68077;BME280;54866;53.458;14.540;2022-11-15T11:03:58;100549.63;;;7.29;96.37
68077;BME280;54866;53.458;14.540;2022-11-15T11:06:28;100550.16;;;7.36;95.99
68077;BME280;54866;53.458;14.540;2022-11-15T11:09:00;100540.44;;;7.50;96.02
68077;BME280;54866;53.458;14.540;2022-11-15T11:11:46;100535.23;;;7.63;95.13
68077;BME280;54866;53.458;14.540;2022-11-15T11:14:21;100530.60;;;7.69;94.13
68077;BME280;54866;53.458;14.540;2022-11-15T11:16:54;100525.63;;;7.67;93.53
68077;BME280;54866;53.458;14.540;2022-11-15T11:19:58;100523.17;;;7.57;92.08
68077;BME280;54866;53.458;14.540;2022-11-15T11:22:34;100525.95;;;7.32;91.69
68077;BME280;54866;53.458;14.540;2022-11-15T11:25:19;100529.11;;;7.13;92.84
68077;BME280;54866;53.458;14.540;2022-11-15T11:28:01;100524.81;;;6.99;94.04
68077;BME280;54866;53.458;14.540;2022-11-15T11:30:42;100525.34;;;6.96;94.58
68077;BME280;54866;53.458;14.540;2022-11-15T11:33:19;100524.44;;;6.91;94.61
68077;BME280;54866;53.458;14.540;2022-11-15T11:35:58;100519.35;;;6.80;94.73
68077;BME280;54866;53.458;14.540;2022-11-15T11:38:48;100521.62;;;6.73;95.08
68077;BME280;54866;53.458;14.540;2022-11-15T11:41:30;100518.77;;;6.65;95.48
68077;BME280;54866;53.458;14.540;2022-11-15T11:44:21;100515.20;;;6.50;95.31
68077;BME280;54866;53.458;14.540;2022-11-15T11:46:58;100510.69;;;6.36;95.48
68077;BME280;54866;53.458;14.540;2022-11-15T11:49:33;100505.98;;;6.22;95.73
68077;BME280;54866;53.458;14.540;2022-11-15T11:52:10;100511.27;;;6.10;96.91
68077;BME280;54866;53.458;14.540;2022-11-15T11:54:49;100513.55;;;6.04;97.36
68077;BME280;54866;53.458;14.540;2022-11-15T11:57:28;100513.15;;;5.97;97.95
68077;BME280;54866;53.458;14.540;2022-11-15T12:00:03;100510.88;;;5.91;98.17
68077;BME280;54866;53.458;14.540;2022-11-15T12:02:38;100506.83;;;5.88;98.62
68077;BME280;54866;53.458;14.540;2022-11-15T12:05:11;100507.55;;;5.85;99.09
68077;BME280;54866;53.458;14.540;2022-11-15T12:07:43;100502.59;;;5.83;99.28
68077;BME280;54866;53.458;14.540;2022-11-15T12:10:23;100501.80;;;5.79;99.41
68077;BME280;54866;53.458;14.540;2022-11-15T12:12:58;100503.65;;;5.71;99.94
68077;BME280;54866;53.458;14.540;2022-11-15T12:15:33;100501.95;;;5.65;99.99
68077;BME280;54866;53.458;14.540;2022-11-15T12:18:08;100505.88;;;5.61;100.00
68077;BME280;54866;53.458;14.540;2022-11-15T12:20:47;100502.27;;;5.57;100.00
68077;BME280;54866;53.458;14.540;2022-11-15T12:23:23;100499.77;;;5.52;100.00
68077;BME280;54866;53.458;14.540;2022-11-15T12:25:59;100498.38;;;5.52;100.00
68077;BME280;54866;53.458;14.540;2022-11-15T12:28:37;100499.51;;;5.50;100.00
68077;BME280;54866;53.458;14.540;2022-11-15T12:31:15;100503.20;;;5.47;100.00
68077;BME280;54866;53.458;14.540;2022-11-15T12:33:48;100500.27;;;5.43;100.00
68077;BME280;54866;53.458;14.540;2022-11-15T12:42:42;100494.73;;;5.31;100.00
68077;BME280;54866;53.458;14.540;2022-11-15T12:45:28;100490.05;;;5.30;100.00
68077;BME280;54866;53.458;14.540;2022-11-15T12:51:08;100489.98;;;5.29;100.00
68077;BME280;54866;53.458;14.540;2022-11-15T12:53:37;100494.69;;;5.29;100.00
68077;BME280;54866;53.458;14.540;2022-11-15T12:56:22;100497.77;;;5.30;100.00
68077;BME280;54866;53.458;14.540;2022-11-15T12:58:54;100494.38;;;5.31;100.00
68077;BME280;54866;53.458;14.540;2022-11-15T13:01:58;100491.52;;;5.30;100.00
68077;BME280;54866;53.458;14.540;2022-11-15T13:04:28;100487.00;;;5.26;100.00
68077;BME280;54866;53.458;14.540;2022-11-15T13:07:00;100484.63;;;5.25;100.00
68077;BME280;54866;53.458;14.540;2022-11-15T13:09:56;100480.61;;;5.25;100.00
68077;BME280;54866;53.458;14.540;2022-11-15T13:12:56;100477.06;;;5.23;100.00
68077;BME280;54866;53.458;14.540;2022-11-15T13:15:53;100474.49;;;5.22;100.00
68077;BME280;54866;53.458;14.540;2022-11-15T13:18:40;100473.98;;;5.22;100.00
68077;BME280;54866;53.458;14.540;2022-11-15T13:21:23;100473.93;;;5.17;100.00
68077;BME280;54866;53.458;14.540;2022-11-15T13:24:17;100475.23;;;5.09;100.00